sensor_id;sensor_type;location;lat;lon;timestamp;pressure;altitude;pressure_sealevel;temperature;humidity
6859;BME280;3468;42.824;23.240;2024-01-30T00:01:13;67541.81;;;-0.66;96.98
6859;BME280;3468;42.824;23.240;2024-01-30T00:03:40;67459.84;;;-0.73;97.85
6859;BME280;3468;42.824;23.240;2024-01-30T00:06:07;67520.25;;;-0.74;99.19
6859;BME280;3468;42.824;23.240;2024-01-30T00:08:34;67494.81;;;-0.75;99.69
6859;BME280;3468;42.824;23.240;2024-01-30T00:11:01;67517.63;;;-0.85;99.56
6859;BME280;3468;42.824;23.240;2024-01-30T00:13:27;67446.94;;;-1.35;100.00
6859;BME280;3468;42.824;23.240;2024-01-30T00:15:54;67498.13;;;-0.82;100.00
6859;BME280;3468;42.824;23.240;2024-01-30T00:18:22;67493.75;;;-0.88;100.00
6859;BME280;3468;42.824;23.240;2024-01-30T00:20:49;67493.97;;;-0.97;100.00
6859;BME280;3468;42.824;23.240;2024-01-30T00:23:16;67474.91;;;-1.05;100.00
6859;BME280;3468;42.824;23.240;2024-01-30T00:25:42;67463.63;;;-1.04;100.00
6859;BME280;3468;42.824;23.240;2024-01-30T00:28:09;67470.69;;;-1.00;100.00
6859;BME280;3468;42.824;23.240;2024-01-30T00:30:36;67482.53;;;-1.00;100.00
6859;BME280;3468;42.824;23.240;2024-01-30T00:33:03;67494.38;;;-1.01;100.00
6859;BME280;3468;42.824;23.240;2024-01-30T00:35:32;67515.22;;;-1.11;100.00
6859;BME280;3468;42.824;23.240;2024-01-30T00:37:58;67460.41;;;-1.09;100.00
6859;BME280;3468;42.824;23.240;2024-01-30T00:40:25;67460.47;;;-1.22;100.00
6859;BME280;3468;42.824;23.240;2024-01-30T00:42:52;67474.97;;;-1.18;100.00
6859;BME280;3468;42.824;23.240;2024-01-30T00:45:18;67455.84;;;-1.13;100.00
6859;BME280;3468;42.824;23.240;2024-01-30T00:47:45;67469.41;;;-1.12;100.00
6859;BME280;3468;42.824;23.240;2024-01-30T00:50:12;67434.28;;;-1.21;100.00
6859;BME280;3468;42.824;23.240;2024-01-30T00:52:40;67437.97;;;-1.32;100.00
6859;BME280;3468;42.824;23.240;2024-01-30T00:55:07;67429.22;;;-1.44;100.00
6859;BME280;3468;42.824;23.240;2024-01-30T00:57:34;67442.44;;;-1.52;100.00
6859;BME280;3468;42.824;23.240;2024-01-30T01:00:01;67428.75;;;-1.64;100.00
6859;BME280;3468;42.824;23.240;2024-01-30T01:02:28;67411.25;;;-1.88;100.00
6859;BME280;3468;42.824;23.240;2024-01-30T01:04:55;67405.91;;;-1.84;100.00
6859;BME280;3468;42.824;23.240;2024-01-30T01:07:21;67398.06;;;-1.80;100.00
6859;BME280;3468;42.824;23.240;2024-01-30T01:09:49;67413.25;;;-1.65;99.93
6859;BME280;3468;42.824;23.240;2024-01-30T01:12:16;67446.06;;;-1.51;98.18
6859;BME280;3468;42.824;23.240;2024-01-30T01:14:43;67453.09;;;-1.47;99.24
6859;BME280;3468;42.824;23.240;2024-01-30T01:17:09;67425.84;;;-1.60;98.98
6859;BME280;3468;42.824;23.240;2024-01-30T01:19:36;67500.97;;;-1.29;99.09
6859;BME280;3468;42.824;23.240;2024-01-30T01:22:03;67424.00;;;-1.29;100.00
6859;BME280;3468;42.824;23.240;2024-01-30T01:24:30;67460.31;;;-1.32;100.00
6859;BME280;3468;42.824;23.240;2024-01-30T01:26:59;67454.56;;;-1.31;100.00
6859;BME280;3468;42.824;23.240;2024-01-30T01:29:26;67463.75;;;-1.36;100.00
6859;BME280;3468;42.824;23.240;2024-01-30T01:31:54;67378.88;;;-2.05;100.00
6859;BME280;3468;42.824;23.240;2024-01-30T01:34:21;67456.72;;;-1.40;100.00
6859;BME280;3468;42.824;23.240;2024-01-30T01:36:48;67485.72;;;-1.38;100.00
6859;BME280;3468;42.824;23.240;2024-01-30T01:39:15;67425.94;;;-1.36;100.00
6859;BME280;3468;42.824;23.240;2024-01-30T01:41:42;67384.13;;;-1.83;100.00
6859;BME280;3468;42.824;23.240;2024-01-30T01:44:10;67458.78;;;-1.36;100.00
6859;BME280;3468;42.824;23.240;2024-01-30T01:46:36;67497.75;;;-1.34;100.00
6859;BME280;3468;42.824;23.240;2024-01-30T01:49:05;67429.56;;;-1.35;100.00
6859;BME280;3468;42.824;23.240;2024-01-30T01:51:34;67458.59;;;-1.34;100.00
6859;BME280;3468;42.824;23.240;2024-01-30T01:54:03;67489.31;;;-1.31;100.00
6859;BME280;3468;42.824;23.240;2024-01-30T01:56:31;67482.44;;;-1.30;100.00
6859;BME280;3468;42.824;23.240;2024-01-30T01:59:00;67421.13;;;-1.25;100.00
6859;BME280;3468;42.824;23.240;2024-01-30T02:01:28;67430.50;;;-1.26;100.00
6859;BME280;3468;42.824;23.240;2024-01-30T02:03:55;67387.47;;;-1.61;100.00
6859;BME280;3468;42.824;23.240;2024-01-30T02:06:22;67473.22;;;-1.13;100.00
6859;BME280;3468;42.824;23.240;2024-01-30T02:08:49;67491.38;;;-1.14;100.00
6859;BME280;3468;42.824;23.240;2024-01-30T02:11:16;67443.78;;;-1.10;100.00
6859;BME280;3468;42.824;23.240;2024-01-30T02:13:43;67483.13;;;-1.06;100.00
6859;BME280;3468;42.824;23.240;2024-01-30T02:16:10;67476.81;;;-1.05;100.00
6859;BME280;3468;42.824;23.240;2024-01-30T02:18:38;67440.16;;;-1.05;100.00
6859;BME280;3468;42.824;23.240;2024-01-30T02:21:10;67519.63;;;-1.05;100.00
6859;BME280;3468;42.824;23.240;2024-01-30T02:23:37;67507.56;;;-1.02;100.00
6859;BME280;3468;42.824;23.240;2024-01-30T02:26:04;67470.28;;;-0.96;100.00
6859;BME280;3468;42.824;23.240;2024-01-30T02:28:31;67467.59;;;-0.94;100.00
6859;BME280;3468;42.824;23.240;2024-01-30T02:30:57;67470.41;;;-0.85;100.00
6859;BME280;3468;42.824;23.240;2024-01-30T02:33:24;67512.09;;;-0.85;100.00
6859;BME280;3468;42.824;23.240;2024-01-30T02:35:51;67514.78;;;-0.87;100.00
6859;BME280;3468;42.824;23.240;2024-01-30T02:38:19;67517.00;;;-0.73;100.00
6859;BME280;3468;42.824;23.240;2024-01-30T02:40:45;67501.88;;;-0.64;100.00
6859;BME280;3468;42.824;23.240;2024-01-30T02:43:12;67454.03;;;-0.95;100.00
6859;BME280;3468;42.824;23.240;2024-01-30T02:45:39;67451.50;;;-0.88;100.00
6859;BME280;3468;42.824;23.240;2024-01-30T02:48:06;67484.09;;;-1.10;100.00
6859;BME280;3468;42.824;23.240;2024-01-30T02:50:33;67373.91;;;-1.19;100.00
6859;BME280;3468;42.824;23.240;2024-01-30T02:53:00;67489.09;;;-0.73;99.95
6859;BME280;3468;42.824;23.240;2024-01-30T02:55:28;67493.25;;;-0.59;100.00
6859;BME280;3468;42.824;23.240;2024-01-30T02:57:55;67485.25;;;-0.66;99.45
6859;BME280;3468;42.824;23.240;2024-01-30T03:00:21;67505.28;;;-0.61;95.69
6859;BME280;3468;42.824;23.240;2024-01-30T03:02:48;67515.81;;;-0.61;93.77
6859;BME280;3468;42.824;23.240;2024-01-30T03:05:15;67547.28;;;-0.46;90.70
6859;BME280;3468;42.824;23.240;2024-01-30T03:07:41;67520.94;;;-0.56;92.05
6859;BME280;3468;42.824;23.240;2024-01-30T03:10:09;67484.97;;;-0.51;92.21
6859;BME280;3468;42.824;23.240;2024-01-30T03:12:37;67544.03;;;-0.45;92.25
6859;BME280;3468;42.824;23.240;2024-01-30T03:15:04;67496.59;;;-0.43;92.39
6859;BME280;3468;42.824;23.240;2024-01-30T03:17:30;67539.25;;;-0.41;91.30
6859;BME280;3468;42.824;23.240;2024-01-30T03:19:57;67507.50;;;-0.46;92.90
6859;BME280;3468;42.824;23.240;2024-01-30T03:22:24;67535.09;;;-0.61;92.62
6859;BME280;3468;42.824;23.240;2024-01-30T03:24:51;67449.63;;;-0.94;91.78
6859;BME280;3468;42.824;23.240;2024-01-30T03:27:17;67523.06;;;-0.59;90.05
6859;BME280;3468;42.824;23.240;2024-01-30T03:29:45;67497.78;;;-0.55;90.70
6859;BME280;3468;42.824;23.240;2024-01-30T03:32:12;67527.81;;;-0.50;91.87
6859;BME280;3468;42.824;23.240;2024-01-30T03:34:39;67508.66;;;-0.45;93.20
6859;BME280;3468;42.824;23.240;2024-01-30T03:37:06;67503.88;;;-0.47;94.40
6859;BME280;3468;42.824;23.240;2024-01-30T03:39:32;67509.78;;;-0.44;96.25
6859;BME280;3468;42.824;23.240;2024-01-30T03:41:59;67525.66;;;-0.42;97.29
6859;BME280;3468;42.824;23.240;2024-01-30T03:44:26;67534.84;;;-0.40;98.36
6859;BME280;3468;42.824;23.240;2024-01-30T03:46:54;67554.72;;;-0.40;99.11
6859;BME280;3468;42.824;23.240;2024-01-30T03:49:21;67524.88;;;-0.40;99.82
6859;BME280;3468;42.824;23.240;2024-01-30T03:51:47;67534.84;;;-0.40;100.00
6859;BME280;3468;42.824;23.240;2024-01-30T03:54:14;67528.91;;;-0.43;100.00
6859;BME280;3468;42.824;23.240;2024-01-30T03:56:41;67519.00;;;-0.49;100.00
6859;BME280;3468;42.824;23.240;2024-01-30T03:59:08;67522.47;;;-0.59;100.00
6859;BME280;3468;42.824;23.240;2024-01-30T04:01:35;67546.59;;;-0.64;100.00
6859;BME280;3468;42.824;23.240;2024-01-30T04:04:03;67499.03;;;-0.73;100.00
6859;BME280;3468;42.824;23.240;2024-01-30T04:06:29;67504.69;;;-0.98;100.00
6859;BME280;3468;42.824;23.240;2024-01-30T04:08:56;67477.16;;;-0.96;100.00
6859;BME280;3468;42.824;23.240;2024-01-30T04:11:23;67471.81;;;-0.99;100.00
6859;BME280;3468;42.824;23.240;2024-01-30T04:13:50;67472.22;;;-1.03;100.00
6859;BME280;3468;42.824;23.240;2024-01-30T04:16:20;67359.25;;;-1.64;100.00
6859;BME280;3468;42.824;23.240;2024-01-30T04:18:47;67473.41;;;-1.08;100.00
6859;BME280;3468;42.824;23.240;2024-01-30T04:21:15;67448.94;;;-1.12;100.00
6859;BME280;3468;42.824;23.240;2024-01-30T04:23:42;67488.53;;;-1.17;100.00
6859;BME280;3468;42.824;23.240;2024-01-30T04:26:09;67440.41;;;-1.20;100.00
6859;BME280;3468;42.824;23.240;2024-01-30T04:28:35;67458.75;;;-1.23;100.00
6859;BME280;3468;42.824;23.240;2024-01-30T04:31:02;67444.06;;;-1.25;100.00
6859;BME280;3468;42.824;23.240;2024-01-30T04:33:29;67429.19;;;-1.31;100.00
6859;BME280;3468;42.824;23.240;2024-01-30T04:35:56;67419.06;;;-1.36;100.00
6859;BME280;3468;42.824;23.240;2024-01-30T04:38:24;67434.19;;;-1.44;100.00
6859;BME280;3468;42.824;23.240;2024-01-30T04:40:50;67425.63;;;-1.52;100.00
6859;BME280;3468;42.824;23.240;2024-01-30T04:43:17;67438.81;;;-1.60;100.00
6859;BME280;3468;42.824;23.240;2024-01-30T04:45:44;67330.34;;;-2.34;100.00
6859;BME280;3468;42.824;23.240;2024-01-30T04:48:11;67401.31;;;-1.81;100.00
6859;BME280;3468;42.824;23.240;2024-01-30T04:50:38;67382.47;;;-1.98;100.00
6859;BME280;3468;42.824;23.240;2024-01-30T04:53:04;67389.94;;;-2.04;100.00
6859;BME280;3468;42.824;23.240;2024-01-30T04:55:33;67400.69;;;-2.25;100.00
6859;BME280;3468;42.824;23.240;2024-01-30T04:57:59;67398.75;;;-2.18;100.00
6859;BME280;3468;42.824;23.240;2024-01-30T05:00:26;67384.47;;;-2.30;100.00
6859;BME280;3468;42.824;23.240;2024-01-30T05:02:54;67323.81;;;-2.93;100.00
6859;BME280;3468;42.824;23.240;2024-01-30T05:05:21;67406.59;;;-2.28;100.00
6859;BME280;3468;42.824;23.240;2024-01-30T05:07:48;67366.94;;;-2.28;100.00
6859;BME280;3468;42.824;23.240;2024-01-30T05:10:14;67378.38;;;-2.31;100.00
6859;BME280;3468;42.824;23.240;2024-01-30T05:12:42;67381.25;;;-2.35;100.00
6859;BME280;3468;42.824;23.240;2024-01-30T05:15:09;67349.41;;;-2.39;100.00
6859;BME280;3468;42.824;23.240;2024-01-30T05:17:36;67363.72;;;-2.46;100.00
6859;BME280;3468;42.824;23.240;2024-01-30T05:20:03;67367.94;;;-2.51;100.00
6859;BME280;3468;42.824;23.240;2024-01-30T05:22:31;67361.84;;;-2.52;100.00
6859;BME280;3468;42.824;23.240;2024-01-30T05:24:58;67356.91;;;-2.52;100.00
6859;BME280;3468;42.824;23.240;2024-01-30T05:27:24;67313.84;;;-2.68;100.00
6859;BME280;3468;42.824;23.240;2024-01-30T05:29:52;67344.31;;;-2.50;100.00
6859;BME280;3468;42.824;23.240;2024-01-30T05:32:19;67347.00;;;-2.52;100.00
6859;BME280;3468;42.824;23.240;2024-01-30T05:34:46;67372.50;;;-2.47;100.00
6859;BME280;3468;42.824;23.240;2024-01-30T05:37:12;67385.84;;;-2.44;100.00
6859;BME280;3468;42.824;23.240;2024-01-30T05:39:42;67384.31;;;-2.35;100.00
6859;BME280;3468;42.824;23.240;2024-01-30T05:42:08;67367.72;;;-2.36;100.00
6859;BME280;3468;42.824;23.240;2024-01-30T05:44:36;67355.31;;;-2.36;100.00
6859;BME280;3468;42.824;23.240;2024-01-30T05:47:04;67379.72;;;-2.39;100.00
6859;BME280;3468;42.824;23.240;2024-01-30T05:49:30;67366.38;;;-2.35;100.00
6859;BME280;3468;42.824;23.240;2024-01-30T05:51:57;67370.53;;;-2.27;100.00
6859;BME280;3468;42.824;23.240;2024-01-30T05:54:24;67399.81;;;-1.91;100.00
6859;BME280;3468;42.824;23.240;2024-01-30T05:56:51;67417.97;;;-1.43;100.00
6859;BME280;3468;42.824;23.240;2024-01-30T05:59:17;67457.28;;;-0.96;100.00
6859;BME280;3468;42.824;23.240;2024-01-30T06:01:45;67537.13;;;-0.44;98.89
6859;BME280;3468;42.824;23.240;2024-01-30T06:04:14;67543.72;;;0.13;95.98
6859;BME280;3468;42.824;23.240;2024-01-30T06:06:41;67646.41;;;1.04;93.45
6859;BME280;3468;42.824;23.240;2024-01-30T06:09:07;67722.84;;;1.96;89.62
6859;BME280;3468;42.824;23.240;2024-01-30T06:11:34;67792.38;;;2.94;84.90
6859;BME280;3468;42.824;23.240;2024-01-30T06:14:01;67882.38;;;4.00;80.12
6859;BME280;3468;42.824;23.240;2024-01-30T06:16:28;67958.63;;;4.94;74.41
6859;BME280;3468;42.824;23.240;2024-01-30T06:18:55;67975.75;;;5.78;66.99
6859;BME280;3468;42.824;23.240;2024-01-30T06:21:24;68122.72;;;6.92;63.63
6859;BME280;3468;42.824;23.240;2024-01-30T06:23:51;68215.50;;;7.74;60.42
6859;BME280;3468;42.824;23.240;2024-01-30T06:26:18;68272.78;;;8.58;57.63
6859;BME280;3468;42.824;23.240;2024-01-30T06:28:45;68302.81;;;8.99;50.81
6859;BME280;3468;42.824;23.240;2024-01-30T06:31:12;68384.34;;;9.97;47.27
6859;BME280;3468;42.824;23.240;2024-01-30T06:33:38;68487.88;;;10.97;44.46
6859;BME280;3468;42.824;23.240;2024-01-30T06:36:07;68523.31;;;11.88;41.09
6859;BME280;3468;42.824;23.240;2024-01-30T06:38:36;68644.63;;;12.73;37.25
6859;BME280;3468;42.824;23.240;2024-01-30T06:41:02;68682.88;;;13.40;35.85
6859;BME280;3468;42.824;23.240;2024-01-30T06:43:30;68494.00;;;11.41;36.11
6859;BME280;3468;42.824;23.240;2024-01-30T06:45:56;68487.31;;;11.55;35.65
6859;BME280;3468;42.824;23.240;2024-01-30T06:48:23;68589.25;;;12.47;35.08
6859;BME280;3468;42.824;23.240;2024-01-30T06:50:53;68653.50;;;13.15;34.28
6859;BME280;3468;42.824;23.240;2024-01-30T06:53:19;68773.13;;;13.67;33.10
6859;BME280;3468;42.824;23.240;2024-01-30T06:55:47;68748.66;;;14.01;32.03
6859;BME280;3468;42.824;23.240;2024-01-30T06:58:14;68711.53;;;13.71;31.76
6859;BME280;3468;42.824;23.240;2024-01-30T07:00:41;68680.50;;;13.23;31.65
6859;BME280;3468;42.824;23.240;2024-01-30T07:03:08;68643.69;;;12.70;32.40
6859;BME280;3468;42.824;23.240;2024-01-30T07:05:34;68586.72;;;12.10;34.66
6859;BME280;3468;42.824;23.240;2024-01-30T07:08:01;68547.91;;;11.79;34.55
6859;BME280;3468;42.824;23.240;2024-01-30T07:10:27;68480.16;;;11.03;35.78
6859;BME280;3468;42.824;23.240;2024-01-30T07:12:56;68339.91;;;9.11;36.85
6859;BME280;3468;42.824;23.240;2024-01-30T07:15:22;68230.97;;;8.15;39.66
6859;BME280;3468;42.824;23.240;2024-01-30T07:17:49;68244.25;;;8.09;40.35
6859;BME280;3468;42.824;23.240;2024-01-30T07:20:16;68140.16;;;7.43;41.41
6859;BME280;3468;42.824;23.240;2024-01-30T07:22:45;68109.88;;;7.22;43.08
6859;BME280;3468;42.824;23.240;2024-01-30T07:25:12;68139.22;;;7.01;44.29
6859;BME280;3468;42.824;23.240;2024-01-30T07:27:39;68060.47;;;6.47;45.53
6859;BME280;3468;42.824;23.240;2024-01-30T07:30:08;68063.72;;;6.73;46.03
6859;BME280;3468;42.824;23.240;2024-01-30T07:32:34;68062.28;;;6.42;44.75
6859;BME280;3468;42.824;23.240;2024-01-30T07:35:01;68071.94;;;6.57;46.01
6859;BME280;3468;42.824;23.240;2024-01-30T07:37:28;68096.50;;;6.56;44.82
6859;BME280;3468;42.824;23.240;2024-01-30T07:39:55;68124.72;;;6.28;47.09
6859;BME280;3468;42.824;23.240;2024-01-30T07:42:21;68089.97;;;6.24;47.21
6859;BME280;3468;42.824;23.240;2024-01-30T07:44:48;67972.78;;;5.54;47.51
6859;BME280;3468;42.824;23.240;2024-01-30T07:47:16;67882.44;;;4.28;50.28
6859;BME280;3468;42.824;23.240;2024-01-30T07:49:43;67865.75;;;4.03;50.84
6859;BME280;3468;42.824;23.240;2024-01-30T07:52:09;67809.88;;;2.94;54.22
6859;BME280;3468;42.824;23.240;2024-01-30T07:54:48;67761.59;;;2.72;56.29
6859;BME280;3468;42.824;23.240;2024-01-30T07:57:15;67784.06;;;2.96;56.39
6859;BME280;3468;42.824;23.240;2024-01-30T07:59:42;67766.59;;;3.13;53.90
6859;BME280;3468;42.824;23.240;2024-01-30T08:02:09;67800.78;;;2.97;54.25
6859;BME280;3468;42.824;23.240;2024-01-30T08:04:37;67794.69;;;3.14;53.57
6859;BME280;3468;42.824;23.240;2024-01-30T08:07:04;67829.22;;;3.41;54.52
6859;BME280;3468;42.824;23.240;2024-01-30T08:09:30;67828.59;;;3.65;53.93
6859;BME280;3468;42.824;23.240;2024-01-30T08:11:57;67855.66;;;3.75;53.46
6859;BME280;3468;42.824;23.240;2024-01-30T08:14:24;68273.88;;;4.11;53.83
6859;BME280;3468;42.824;23.240;2024-01-30T08:16:51;67754.50;;;3.78;51.34
6859;BME280;3468;42.824;23.240;2024-01-30T08:19:19;67879.13;;;4.12;51.66
6859;BME280;3468;42.824;23.240;2024-01-30T08:21:47;67908.66;;;4.64;52.40
6859;BME280;3468;42.824;23.240;2024-01-30T08:24:13;67913.53;;;4.25;51.14
6859;BME280;3468;42.824;23.240;2024-01-30T08:26:40;67827.31;;;3.42;52.70
6859;BME280;3468;42.824;23.240;2024-01-30T08:29:07;67838.19;;;3.51;53.11
6859;BME280;3468;42.824;23.240;2024-01-30T08:31:34;67825.66;;;3.34;53.38
6859;BME280;3468;42.824;23.240;2024-01-30T08:34:00;67856.94;;;3.63;52.70
6859;BME280;3468;42.824;23.240;2024-01-30T08:36:27;67872.91;;;4.01;53.17
6859;BME280;3468;42.824;23.240;2024-01-30T08:38:56;67902.78;;;4.20;51.63
6859;BME280;3468;42.824;23.240;2024-01-30T08:41:22;67883.00;;;4.29;53.27
6859;BME280;3468;42.824;23.240;2024-01-30T08:43:49;67929.84;;;4.65;51.34
6859;BME280;3468;42.824;23.240;2024-01-30T08:46:17;67912.53;;;4.28;52.10
6859;BME280;3468;42.824;23.240;2024-01-30T08:48:44;67894.75;;;4.13;52.95
6859;BME280;3468;42.824;23.240;2024-01-30T08:51:11;67905.13;;;4.33;52.76
6859;BME280;3468;42.824;23.240;2024-01-30T08:53:39;67843.91;;;3.73;52.53
6859;BME280;3468;42.824;23.240;2024-01-30T08:56:07;67856.06;;;3.54;53.69
6859;BME280;3468;42.824;23.240;2024-01-30T08:58:34;67843.47;;;3.60;54.27
6859;BME280;3468;42.824;23.240;2024-01-30T09:01:01;67861.66;;;3.89;54.47
6859;BME280;3468;42.824;23.240;2024-01-30T09:03:29;67927.41;;;4.24;52.35
6859;BME280;3468;42.824;23.240;2024-01-30T09:05:55;67892.53;;;4.39;53.73
6859;BME280;3468;42.824;23.240;2024-01-30T09:08:22;67907.94;;;4.42;53.43
6859;BME280;3468;42.824;23.240;2024-01-30T09:10:49;67946.59;;;4.84;51.71
6859;BME280;3468;42.824;23.240;2024-01-30T09:13:17;67976.41;;;5.09;51.29
6859;BME280;3468;42.824;23.240;2024-01-30T09:15:44;67970.91;;;4.85;50.65
6859;BME280;3468;42.824;23.240;2024-01-30T09:18:11;67940.31;;;4.44;52.51
6859;BME280;3468;42.824;23.240;2024-01-30T09:20:38;67893.47;;;4.25;52.71
6859;BME280;3468;42.824;23.240;2024-01-30T09:23:04;67905.34;;;4.13;50.51
6859;BME280;3468;42.824;23.240;2024-01-30T09:25:31;67828.69;;;3.58;53.34
6859;BME280;3468;42.824;23.240;2024-01-30T09:27:59;67900.06;;;4.22;52.82
6859;BME280;3468;42.824;23.240;2024-01-30T09:30:27;67809.84;;;3.35;52.63
6859;BME280;3468;42.824;23.240;2024-01-30T09:32:54;67898.34;;;4.20;52.32
6859;BME280;3468;42.824;23.240;2024-01-30T09:35:20;67942.16;;;4.50;52.05
6859;BME280;3468;42.824;23.240;2024-01-30T09:37:47;67902.63;;;4.50;51.67
6859;BME280;3468;42.824;23.240;2024-01-30T09:40:14;67919.94;;;4.35;51.85
6859;BME280;3468;42.824;23.240;2024-01-30T09:42:46;67933.91;;;4.45;52.00
6859;BME280;3468;42.824;23.240;2024-01-30T09:45:14;67907.91;;;4.07;52.48
6859;BME280;3468;42.824;23.240;2024-01-30T09:47:43;67862.97;;;4.29;52.33
6859;BME280;3468;42.824;23.240;2024-01-30T09:50:10;67914.22;;;4.64;51.69
6859;BME280;3468;42.824;23.240;2024-01-30T09:52:37;67936.88;;;4.58;50.42
6859;BME280;3468;42.824;23.240;2024-01-30T09:55:05;67928.84;;;4.51;49.34
6859;BME280;3468;42.824;23.240;2024-01-30T09:57:32;67975.13;;;5.04;51.82
6859;BME280;3468;42.824;23.240;2024-01-30T09:59:59;67945.13;;;5.26;48.40
6859;BME280;3468;42.824;23.240;2024-01-30T10:02:26;67995.50;;;5.13;48.40
6859;BME280;3468;42.824;23.240;2024-01-30T10:04:55;67962.06;;;5.14;48.86
6859;BME280;3468;42.824;23.240;2024-01-30T10:07:22;68000.28;;;5.32;48.64
6859;BME280;3468;42.824;23.240;2024-01-30T10:09:48;67937.22;;;4.95;48.67
6859;BME280;3468;42.824;23.240;2024-01-30T10:12:15;67974.84;;;4.95;49.36
6859;BME280;3468;42.824;23.240;2024-01-30T10:14:43;67950.13;;;4.80;49.01
6859;BME280;3468;42.824;23.240;2024-01-30T10:17:10;68231.81;;;4.18;48.93
6859;BME280;3468;42.824;23.240;2024-01-30T10:19:39;67939.94;;;4.58;49.30
6859;BME280;3468;42.824;23.240;2024-01-30T10:22:07;67990.03;;;5.17;49.20
6859;BME280;3468;42.824;23.240;2024-01-30T10:24:34;67974.09;;;5.25;48.93
6859;BME280;3468;42.824;23.240;2024-01-30T10:27:01;67998.34;;;5.15;48.89
6859;BME280;3468;42.824;23.240;2024-01-30T10:29:28;67966.81;;;5.51;48.75
6859;BME280;3468;42.824;23.240;2024-01-30T10:31:58;68032.88;;;5.84;49.07
6859;BME280;3468;42.824;23.240;2024-01-30T10:34:26;68040.91;;;5.91;46.30
6859;BME280;3468;42.824;23.240;2024-01-30T10:36:59;68059.41;;;5.94;47.12
6859;BME280;3468;42.824;23.240;2024-01-30T10:39:29;68036.75;;;5.83;46.14
6859;BME280;3468;42.824;23.240;2024-01-30T10:42:04;67970.16;;;5.15;48.22
6859;BME280;3468;42.824;23.240;2024-01-30T10:44:37;67916.50;;;4.66;49.81
6859;BME280;3468;42.824;23.240;2024-01-30T10:47:07;67963.94;;;4.68;51.03
6859;BME280;3468;42.824;23.240;2024-01-30T10:49:37;67903.56;;;4.53;50.66
6859;BME280;3468;42.824;23.240;2024-01-30T10:52:05;67937.28;;;4.71;50.82
6859;BME280;3468;42.824;23.240;2024-01-30T10:54:34;67937.44;;;4.76;51.07
6859;BME280;3468;42.824;23.240;2024-01-30T10:57:03;67943.88;;;4.86;49.65
6859;BME280;3468;42.824;23.240;2024-01-30T10:59:31;68001.78;;;5.18;50.18
6859;BME280;3468;42.824;23.240;2024-01-30T11:02:00;68011.22;;;5.52;48.34
6859;BME280;3468;42.824;23.240;2024-01-30T11:04:27;67985.50;;;5.24;47.56
6859;BME280;3468;42.824;23.240;2024-01-30T11:06:59;67995.88;;;5.43;48.96
6859;BME280;3468;42.824;23.240;2024-01-30T11:09:29;67983.13;;;5.11;48.08
6859;BME280;3468;42.824;23.240;2024-01-30T11:11:58;67963.44;;;5.13;49.41
6859;BME280;3468;42.824;23.240;2024-01-30T11:14:25;68035.03;;;3.05;50.16
6859;BME280;3468;42.824;23.240;2024-01-30T11:16:53;67977.72;;;4.97;48.96
6859;BME280;3468;42.824;23.240;2024-01-30T11:19:23;67952.00;;;5.14;49.40
6859;BME280;3468;42.824;23.240;2024-01-30T11:21:51;67979.97;;;5.34;48.27
6859;BME280;3468;42.824;23.240;2024-01-30T11:24:19;67992.19;;;5.32;48.28
6859;BME280;3468;42.824;23.240;2024-01-30T11:26:48;68012.75;;;5.04;49.30
6859;BME280;3468;42.824;23.240;2024-01-30T11:29:16;67959.00;;;4.79;49.52
6859;BME280;3468;42.824;23.240;2024-01-30T11:31:51;67940.31;;;4.78;50.15
6859;BME280;3468;42.824;23.240;2024-01-30T11:34:19;67830.28;;;4.52;49.67
6859;BME280;3468;42.824;23.240;2024-01-30T11:36:53;67973.81;;;5.16;49.33
6859;BME280;3468;42.824;23.240;2024-01-30T11:39:24;67947.81;;;4.95;50.47
6859;BME280;3468;42.824;23.240;2024-01-30T11:41:52;67941.38;;;5.03;50.65
6859;BME280;3468;42.824;23.240;2024-01-30T11:44:21;67791.56;;;4.06;51.52
6859;BME280;3468;42.824;23.240;2024-01-30T11:46:48;67861.25;;;3.93;53.07
6859;BME280;3468;42.824;23.240;2024-01-30T11:49:16;67867.19;;;4.13;53.58
6859;BME280;3468;42.824;23.240;2024-01-30T11:51:43;68229.06;;;4.33;53.16
6859;BME280;3468;42.824;23.240;2024-01-30T11:54:09;67922.19;;;4.78;53.95
6859;BME280;3468;42.824;23.240;2024-01-30T11:56:37;67965.88;;;4.85;51.66
6859;BME280;3468;42.824;23.240;2024-01-30T11:59:04;67936.94;;;4.69;52.22
6859;BME280;3468;42.824;23.240;2024-01-30T12:01:32;67935.06;;;4.63;52.19
6859;BME280;3468;42.824;23.240;2024-01-30T12:03:59;67967.81;;;4.85;51.75
6859;BME280;3468;42.824;23.240;2024-01-30T12:06:26;67948.03;;;4.93;51.76
6859;BME280;3468;42.824;23.240;2024-01-30T12:08:57;67892.00;;;4.67;52.87
6859;BME280;3468;42.824;23.240;2024-01-30T12:11:25;67997.63;;;3.46;52.28
6859;BME280;3468;42.824;23.240;2024-01-30T12:13:52;67962.81;;;4.67;51.71
6859;BME280;3468;42.824;23.240;2024-01-30T12:16:19;67937.38;;;4.65;53.34
6859;BME280;3468;42.824;23.240;2024-01-30T12:18:49;68126.09;;;2.89;53.65
6859;BME280;3468;42.824;23.240;2024-01-30T12:21:25;67884.31;;;3.59;53.92
6859;BME280;3468;42.824;23.240;2024-01-30T12:23:52;67901.47;;;4.49;53.70
6859;BME280;3468;42.824;23.240;2024-01-30T12:26:19;67944.88;;;4.48;54.06
6859;BME280;3468;42.824;23.240;2024-01-30T12:28:49;67904.00;;;4.49;53.31
6859;BME280;3468;42.824;23.240;2024-01-30T12:31:16;67940.16;;;4.39;52.94
6859;BME280;3468;42.824;23.240;2024-01-30T12:33:42;67860.94;;;4.53;54.29
6859;BME280;3468;42.824;23.240;2024-01-30T12:36:11;67697.31;;;4.20;53.10
6859;BME280;3468;42.824;23.240;2024-01-30T12:38:38;67927.34;;;4.65;53.22
6859;BME280;3468;42.824;23.240;2024-01-30T12:41:07;67959.72;;;4.50;53.63
6859;BME280;3468;42.824;23.240;2024-01-30T12:43:34;68229.75;;;4.08;53.85
6859;BME280;3468;42.824;23.240;2024-01-30T12:46:01;67941.81;;;4.30;52.55
6859;BME280;3468;42.824;23.240;2024-01-30T12:48:28;67771.53;;;3.71;54.25
6859;BME280;3468;42.824;23.240;2024-01-30T12:50:55;67910.06;;;4.22;55.52
6859;BME280;3468;42.824;23.240;2024-01-30T12:53:24;67876.41;;;3.97;54.11
6859;BME280;3468;42.824;23.240;2024-01-30T12:55:50;67834.78;;;4.00;53.23
6859;BME280;3468;42.824;23.240;2024-01-30T12:58:18;67844.06;;;3.78;54.83
6859;BME280;3468;42.824;23.240;2024-01-30T13:00:45;67890.16;;;4.09;54.38
6859;BME280;3468;42.824;23.240;2024-01-30T13:03:12;67756.63;;;4.39;54.14
6859;BME280;3468;42.824;23.240;2024-01-30T13:05:39;67880.16;;;4.09;53.84
6859;BME280;3468;42.824;23.240;2024-01-30T13:08:06;67908.00;;;4.18;54.44
6859;BME280;3468;42.824;23.240;2024-01-30T13:10:34;67801.63;;;4.17;53.86
6859;BME280;3468;42.824;23.240;2024-01-30T13:13:01;67756.19;;;2.93;53.04